Time;durP1;ratioP1;P1;durP2;ratioP2;P2;SDS_P1;SDS_P2;PMS_P1;PMS_P2;Temp;Humidity;BMP_temperature;BMP_pressure;BME280_temperature;BME280_humidity;BME280_pressure;Samples;Min_cycle;Max_cycle;Signal;HPM_P1;HPM_P2
2022/04/29 00:02:06;;;;;;;19.83;8.90;;;;;;;;;;5070308;28;20039;-76
2022/04/29 00:04:32;;;;;;;16.60;9.35;;;;;;;;;;5091273;28;20121;-76
2022/04/29 00:06:59;;;;;;;15.82;9.15;;;;;;;;;;5091267;28;20071;-76
2022/04/29 00:09:25;;;;;;;16.63;9.25;;;;;;;;;;5091252;28;20044;-76
2022/04/29 00:11:52;;;;;;;15.73;9.20;;;;;;;;;;5091317;28;20036;-76
2022/04/29 00:14:19;;;;;;;14.43;8.40;;;;;;;;;;5091134;28;20270;-76
2022/04/29 00:16:45;;;;;;;14.80;8.73;;;;;;;;;;5091021;28;20492;-76
2022/04/29 00:19:11;;;;;;;14.23;8.85;;;;;;;;;;5090625;28;20077;-76
2022/04/29 00:21:37;;;;;;;17.95;8.98;;;;;;;;;;5090957;28;20074;-76
2022/04/29 00:24:03;;;;;;;15.23;8.77;;;;;;;;;;5091061;28;20407;-76
2022/04/29 00:26:29;;;;;;;18.23;9.55;;;;;;;;;;5090513;28;20047;-76
2022/04/29 00:28:56;;;;;;;15.75;8.90;;;;;;;;;;5090512;28;20052;-76
2022/04/29 00:31:22;;;;;;;19.65;9.25;;;;;;;;;;5090426;28;20093;-76
2022/04/29 00:33:48;;;;;;;16.35;8.20;;;;;;;;;;5090303;28;20055;-76
2022/04/29 00:36:14;;;;;;;15.60;8.90;;;;;;;;;;5090608;28;20048;-76
2022/04/29 00:38:40;;;;;;;14.15;8.23;;;;;;;;;;5090364;28;20048;-76
2022/04/29 00:41:07;;;;;;;15.18;8.77;;;;;;;;;;5090237;28;20119;-76
2022/04/29 00:43:34;;;;;;;16.30;8.77;;;;;;;;;;5090272;28;20040;-76
2022/04/29 00:46:00;;;;;;;17.25;9.43;;;;;;;;;;5090092;28;20042;-76
2022/04/29 00:48:27;;;;;;;13.90;8.70;;;;;;;;;;5090188;28;20044;-76
2022/04/29 00:50:54;;;;;;;16.45;9.25;;;;;;;;;;5090021;28;20079;-76
2022/04/29 00:53:22;;;;;;;16.40;8.35;;;;;;;;;;5090218;28;20075;-76
2022/04/29 00:55:49;;;;;;;15.90;8.90;;;;;;;;;;5074062;28;20540;-76
2022/04/29 00:58:18;;;;;;;16.60;8.85;;;;;;;;;;5089972;28;20475;-76
2022/04/29 01:00:44;;;;;;;13.95;8.32;;;;;;;;;;5090131;28;20467;-76
2022/04/29 01:03:14;;;;;;;15.25;8.80;;;;;;;;;;5083191;28;20040;-76
2022/04/29 01:05:41;;;;;;;15.93;8.45;;;;;;;;;;5089770;28;20044;-76
2022/04/29 01:08:07;;;;;;;17.45;8.77;;;;;;;;;;5090026;28;20239;-76
2022/04/29 01:10:34;;;;;;;16.33;9.50;;;;;;;;;;5089839;28;20127;-76
2022/04/29 01:13:01;;;;;;;17.02;9.18;;;;;;;;;;5089945;28;20044;-76
2022/04/29 01:15:28;;;;;;;16.95;8.45;;;;;;;;;;5072363;28;20491;-76
2022/04/29 01:17:56;;;;;;;17.15;8.85;;;;;;;;;;5089536;28;20048;-76
2022/04/29 01:20:25;;;;;;;18.13;9.82;;;;;;;;;;5072870;28;20044;-76
2022/04/29 01:22:51;;;;;;;16.42;9.35;;;;;;;;;;5073747;28;20395;-76
2022/04/29 01:25:17;;;;;;;14.95;8.27;;;;;;;;;;5089890;28;20054;-76
2022/04/29 01:27:44;;;;;;;15.32;8.80;;;;;;;;;;5089843;28;20051;-76
2022/04/29 01:30:12;;;;;;;19.30;9.02;;;;;;;;;;5089383;28;20039;-76
2022/04/29 01:32:39;;;;;;;13.77;8.55;;;;;;;;;;5072849;28;20048;-76
2022/04/29 01:35:07;;;;;;;15.43;8.63;;;;;;;;;;5089228;28;20052;-76
2022/04/29 01:37:33;;;;;;;13.55;7.32;;;;;;;;;;5089194;28;20099;-76
2022/04/29 01:40:01;;;;;;;15.95;8.93;;;;;;;;;;5089155;28;20042;-76
2022/04/29 01:42:27;;;;;;;14.43;8.27;;;;;;;;;;5089278;28;20063;-76
2022/04/29 01:44:54;;;;;;;12.95;8.00;;;;;;;;;;5089354;28;20391;-76
2022/04/29 01:47:20;;;;;;;14.82;8.43;;;;;;;;;;5089554;28;20595;-76
2022/04/29 01:49:46;;;;;;;17.23;8.15;;;;;;;;;;5089564;28;20105;-76
2022/04/29 01:52:12;;;;;;;15.10;7.65;;;;;;;;;;5089234;28;20087;-76
2022/04/29 01:54:39;;;;;;;18.10;8.60;;;;;;;;;;5089260;28;20444;-76
2022/04/29 01:57:08;;;;;;;19.65;9.50;;;;;;;;;;5089082;28;20502;-76
2022/04/29 01:59:38;;;;;;;16.77;9.00;;;;;;;;;;5088796;28;20036;-76
2022/04/29 02:02:08;;;;;;;17.00;9.20;;;;;;;;;;5088757;28;20040;-76
2022/04/29 02:04:37;;;;;;;21.05;9.02;;;;;;;;;;5089112;28;20044;-75
2022/04/29 02:07:04;;;;;;;15.00;9.00;;;;;;;;;;5088613;28;20046;-75
2022/04/29 02:09:30;;;;;;;15.95;8.48;;;;;;;;;;5088977;28;20138;-75
2022/04/29 02:12:05;;;;;;;13.35;8.45;;;;;;;;;;5072126;28;20040;-75
2022/04/29 02:14:32;;;;;;;15.95;8.75;;;;;;;;;;5088350;28;20045;-75
2022/04/29 02:16:59;;;;;;;14.80;8.47;;;;;;;;;;5072046;28;20154;-75
2022/04/29 02:19:27;;;;;;;15.63;8.85;;;;;;;;;;5088426;28;20059;-75
2022/04/29 02:21:53;;;;;;;15.95;9.15;;;;;;;;;;5088332;28;20111;-76
2022/04/29 02:24:19;;;;;;;17.15;9.43;;;;;;;;;;5088686;28;20355;-75
2022/04/29 02:26:45;;;;;;;15.68;8.82;;;;;;;;;;5087226;28;20131;-75
2022/04/29 02:29:11;;;;;;;17.88;8.95;;;;;;;;;;5088554;28;20047;-75
2022/04/29 02:31:38;;;;;;;16.77;8.77;;;;;;;;;;5088086;28;20036;-75
2022/04/29 02:34:04;;;;;;;15.13;9.27;;;;;;;;;;5087943;28;20135;-75
2022/04/29 02:36:31;;;;;;;16.67;8.90;;;;;;;;;;5071156;28;20048;-75
2022/04/29 02:38:58;;;;;;;17.48;8.98;;;;;;;;;;5087949;28;20063;-75
2022/04/29 02:41:24;;;;;;;21.33;9.63;;;;;;;;;;5088158;28;20040;-75
2022/04/29 02:43:50;;;;;;;16.10;9.15;;;;;;;;;;5088380;28;20094;-75
2022/04/29 02:46:17;;;;;;;16.05;8.93;;;;;;;;;;5087602;28;20040;-75
2022/04/29 02:48:43;;;;;;;13.23;8.32;;;;;;;;;;5076415;28;20541;-75
2022/04/29 02:51:10;;;;;;;14.70;8.35;;;;;;;;;;5086620;28;20040;-75
2022/04/29 02:53:36;;;;;;;16.63;8.95;;;;;;;;;;5088059;28;20055;-75
2022/04/29 02:56:02;;;;;;;15.93;8.80;;;;;;;;;;5088073;28;20503;-75
2022/04/29 02:58:29;;;;;;;18.75;9.80;;;;;;;;;;5087752;28;20374;-75
2022/04/29 03:00:56;;;;;;;14.48;8.68;;;;;;;;;;5087956;28;20201;-75
2022/04/29 03:03:22;;;;;;;16.73;9.13;;;;;;;;;;5080304;28;20122;-75
2022/04/29 03:05:49;;;;;;;15.35;8.73;;;;;;;;;;5087415;28;20039;-75
2022/04/29 03:08:15;;;;;;;18.40;9.45;;;;;;;;;;5087377;28;20407;-75
2022/04/29 03:10:41;;;;;;;15.98;8.95;;;;;;;;;;5087535;28;20047;-75
2022/04/29 03:13:07;;;;;;;14.48;8.52;;;;;;;;;;5087826;28;20036;-75
2022/04/29 03:15:34;;;;;;;15.57;8.50;;;;;;;;;;5088105;28;20399;-75
2022/04/29 03:18:21;;;;;;;14.90;8.80;;;;;;;;;;5087321;28;20048;-75
2022/04/29 03:20:48;;;;;;;13.63;8.65;;;;;;;;;;5087445;28;20036;-75
2022/04/29 03:23:15;;;;;;;16.45;8.88;;;;;;;;;;5087327;28;20036;-75
2022/04/29 03:25:41;;;;;;;16.92;8.77;;;;;;;;;;5087621;28;20032;-75
2022/04/29 03:28:07;;;;;;;16.45;8.70;;;;;;;;;;5087289;28;20402;-75
2022/04/29 03:30:34;;;;;;;16.25;9.27;;;;;;;;;;5087438;28;20487;-75
2022/04/29 03:33:02;;;;;;;15.23;8.80;;;;;;;;;;5087570;28;20505;-75
2022/04/29 03:35:28;;;;;;;16.90;9.07;;;;;;;;;;5086993;28;20060;-75
2022/04/29 03:37:55;;;;;;;15.50;8.90;;;;;;;;;;5087000;28;20051;-76
2022/04/29 03:40:25;;;;;;;16.38;9.52;;;;;;;;;;5087100;28;20047;-75
2022/04/29 03:42:52;;;;;;;19.00;9.13;;;;;;;;;;5087429;28;20060;-75
2022/04/29 03:45:18;;;;;;;17.15;8.80;;;;;;;;;;5086689;28;20118;-75
2022/04/29 03:47:44;;;;;;;15.65;8.95;;;;;;;;;;5086933;28;20047;-75
2022/04/29 03:50:11;;;;;;;18.40;8.77;;;;;;;;;;5087207;28;20051;-75
2022/04/29 03:53:06;;;;;;;15.57;9.00;;;;;;;;;;5087258;28;20519;-75
2022/04/29 03:55:34;;;;;;;16.00;8.82;;;;;;;;;;5078395;28;20051;-75
2022/04/29 03:58:02;;;;;;;16.60;9.32;;;;;;;;;;5086864;28;20086;-75
2022/04/29 04:00:31;;;;;;;17.15;9.65;;;;;;;;;;5087100;28;20503;-75
2022/04/29 04:03:05;;;;;;;17.65;8.95;;;;;;;;;;5087158;28;20040;-75
2022/04/29 04:05:31;;;;;;;14.48;8.65;;;;;;;;;;5087214;28;20047;-75
2022/04/29 04:07:57;;;;;;;16.85;8.80;;;;;;;;;;5087066;28;20048;-75
2022/04/29 04:10:23;;;;;;;15.75;9.35;;;;;;;;;;5080108;28;20128;-75
2022/04/29 04:12:50;;;;;;;16.92;9.93;;;;;;;;;;5086819;28;20044;-75
2022/04/29 04:15:17;;;;;;;16.20;9.40;;;;;;;;;;5086632;28;20123;-75
2022/04/29 04:17:44;;;;;;;15.20;9.00;;;;;;;;;;5086704;28;20059;-75
2022/04/29 04:20:11;;;;;;;15.02;8.73;;;;;;;;;;5086817;28;20038;-75
2022/04/29 04:22:37;;;;;;;19.00;9.63;;;;;;;;;;5086976;28;20434;-75
2022/04/29 04:25:07;;;;;;;15.20;8.88;;;;;;;;;;5086658;28;20119;-75
2022/04/29 04:27:33;;;;;;;15.65;8.70;;;;;;;;;;5087005;28;20983;-75
2022/04/29 04:30:00;;;;;;;14.27;8.15;;;;;;;;;;5069870;28;20040;-75
2022/04/29 04:32:27;;;;;;;13.57;7.97;;;;;;;;;;5082964;28;20098;-75
2022/04/29 04:34:54;;;;;;;13.63;8.10;;;;;;;;;;5086690;28;20140;-75
2022/04/29 04:37:21;;;;;;;15.75;8.98;;;;;;;;;;5086418;28;20277;-75
2022/04/29 04:39:48;;;;;;;16.65;8.70;;;;;;;;;;5070068;28;20326;-76
2022/04/29 04:42:14;;;;;;;15.63;9.10;;;;;;;;;;5086575;28;20094;-76
2022/04/29 04:44:40;;;;;;;14.98;8.73;;;;;;;;;;5086822;28;20040;-76
2022/04/29 04:47:06;;;;;;;16.88;9.23;;;;;;;;;;5086694;28;20475;-75
2022/04/29 04:49:33;;;;;;;13.32;8.73;;;;;;;;;;5087608;28;20490;-75
2022/04/29 04:52:00;;;;;;;15.40;9.07;;;;;;;;;;5090149;28;20627;-76
2022/04/29 04:54:26;;;;;;;15.52;8.98;;;;;;;;;;5083350;28;20078;-76
2022/04/29 04:56:52;;;;;;;14.18;8.43;;;;;;;;;;5086699;28;20040;-76
2022/04/29 04:59:18;;;;;;;15.73;9.82;;;;;;;;;;5072490;28;20472;-75
2022/04/29 05:01:44;;;;;;;15.70;9.25;;;;;;;;;;5089256;28;20036;-76
2022/04/29 05:04:11;;;;;;;15.43;8.65;;;;;;;;;;5088202;28;20071;-76
2022/04/29 05:06:37;;;;;;;16.27;9.45;;;;;;;;;;5069824;28;20040;-75
2022/04/29 05:09:07;;;;;;;16.23;9.20;;;;;;;;;;5084898;28;20054;-75
2022/04/29 05:11:33;;;;;;;18.42;9.88;;;;;;;;;;5083227;28;20084;-75
2022/04/29 05:14:00;;;;;;;16.05;9.95;;;;;;;;;;5082622;28;20048;-75
2022/04/29 05:16:26;;;;;;;24.35;10.85;;;;;;;;;;5086952;28;20044;-75
2022/04/29 05:18:52;;;;;;;17.50;10.07;;;;;;;;;;5088707;28;20407;-75
2022/04/29 05:21:24;;;;;;;19.90;11.38;;;;;;;;;;5087032;28;20067;-75
2022/04/29 05:23:50;;;;;;;19.63;10.68;;;;;;;;;;5087426;28;20028;-75
2022/04/29 05:26:17;;;;;;;16.95;10.63;;;;;;;;;;5085875;28;20040;-75
2022/04/29 05:28:43;;;;;;;17.17;10.00;;;;;;;;;;5081522;28;20124;-77
2022/04/29 05:31:09;;;;;;;18.85;10.10;;;;;;;;;;5086312;28;20048;-75
2022/04/29 05:33:38;;;;;;;17.85;10.05;;;;;;;;;;5090620;28;20055;-75
2022/04/29 05:36:05;;;;;;;18.50;10.02;;;;;;;;;;5096567;27;20047;-75
2022/04/29 05:44:01;;;;;;;18.08;9.52;;;;;;;;;;5127613;27;20082;-75
2022/04/29 05:46:27;;;;;;;18.83;9.40;;;;;;;;;;5092570;28;20487;-75
2022/04/29 05:48:54;;;;;;;15.07;8.90;;;;;;;;;;5081578;28;20042;-75
2022/04/29 05:51:20;;;;;;;18.38;9.43;;;;;;;;;;5091916;28;20048;-75
2022/04/29 05:53:46;;;;;;;16.52;9.38;;;;;;;;;;5092275;28;20149;-74
2022/04/29 05:56:12;;;;;;;12.02;7.75;;;;;;;;;;5092309;28;20054;-75
2022/04/29 05:58:38;;;;;;;14.35;7.80;;;;;;;;;;5092543;28;20491;-75
2022/04/29 06:01:05;;;;;;;19.15;8.15;;;;;;;;;;5071522;28;20133;-75
2022/04/29 06:03:31;;;;;;;15.20;7.93;;;;;;;;;;5078236;28;20032;-75
2022/04/29 06:05:57;;;;;;;16.38;7.97;;;;;;;;;;5072955;28;20047;-75
2022/04/29 06:08:24;;;;;;;13.48;7.93;;;;;;;;;;5104586;28;20471;-74
2022/04/29 06:10:50;;;;;;;14.70;7.60;;;;;;;;;;5093082;27;20047;-74
2022/04/29 06:13:16;;;;;;;11.32;7.70;;;;;;;;;;5088822;28;20047;-74
2022/04/29 06:15:43;;;;;;;14.93;7.75;;;;;;;;;;5090424;28;20450;-74
2022/04/29 06:18:09;;;;;;;13.45;7.88;;;;;;;;;;5088512;28;20115;-74
2022/04/29 06:20:35;;;;;;;12.95;7.18;;;;;;;;;;5094436;28;20032;-74
2022/04/29 06:23:01;;;;;;;12.65;6.75;;;;;;;;;;5109732;28;20109;-75
2022/04/29 06:25:27;;;;;;;11.73;6.88;;;;;;;;;;5079527;28;20155;-74
2022/04/29 06:27:54;;;;;;;10.68;6.65;;;;;;;;;;5085543;28;20039;-74
2022/04/29 06:30:20;;;;;;;12.98;6.80;;;;;;;;;;5091715;28;20506;-75
2022/04/29 06:32:46;;;;;;;11.98;6.80;;;;;;;;;;5091361;28;20047;-75
2022/04/29 06:35:15;;;;;;;15.07;6.78;;;;;;;;;;5074623;28;20422;-75
2022/04/29 06:37:51;;;;;;;14.10;7.32;;;;;;;;;;5091227;28;20092;-75
2022/04/29 06:40:18;;;;;;;12.55;6.53;;;;;;;;;;5091217;28;20701;-75
2022/04/29 06:42:48;;;;;;;12.30;6.55;;;;;;;;;;5093848;27;20118;-75
2022/04/29 06:45:14;;;;;;;10.10;5.72;;;;;;;;;;5095101;27;20051;-74
2022/04/29 06:47:41;;;;;;;10.82;5.60;;;;;;;;;;5098155;27;20505;-75
2022/04/29 06:50:10;;;;;;;15.20;6.00;;;;;;;;;;5093110;28;20133;-75
2022/04/29 06:52:36;;;;;;;10.48;5.53;;;;;;;;;;5098817;27;20046;-75
2022/04/29 06:55:03;;;;;;;8.73;5.00;;;;;;;;;;5094980;28;20490;-74
2022/04/29 06:57:38;;;;;;;10.15;5.32;;;;;;;;;;5099112;27;20112;-75
2022/04/29 07:00:05;;;;;;;9.05;5.20;;;;;;;;;;5082630;27;20062;-75
2022/04/29 07:02:32;;;;;;;7.28;4.57;;;;;;;;;;5085661;28;20040;-75
2022/04/29 07:04:59;;;;;;;10.07;5.70;;;;;;;;;;5085792;28;20080;-74
2022/04/29 07:07:28;;;;;;;11.13;5.68;;;;;;;;;;5079347;28;20062;-75
2022/04/29 07:09:55;;;;;;;9.80;5.55;;;;;;;;;;5091098;28;20451;-75
2022/04/29 07:12:21;;;;;;;10.65;5.88;;;;;;;;;;5084876;28;20509;-75
2022/04/29 07:14:47;;;;;;;9.38;6.05;;;;;;;;;;5085461;28;20044;-75
2022/04/29 07:17:14;;;;;;;10.70;5.82;;;;;;;;;;5072532;28;20044;-75
2022/04/29 07:19:41;;;;;;;10.40;6.38;;;;;;;;;;5086717;28;20071;-75
2022/04/29 07:22:10;;;;;;;9.07;5.85;;;;;;;;;;5090599;28;20116;-75
2022/04/29 07:24:36;;;;;;;12.38;5.80;;;;;;;;;;5090688;28;20507;-75
2022/04/29 07:27:02;;;;;;;10.68;6.03;;;;;;;;;;5100070;28;20077;-75
2022/04/29 07:29:28;;;;;;;9.98;5.22;;;;;;;;;;5094863;28;20479;-75
2022/04/29 07:31:55;;;;;;;9.38;5.30;;;;;;;;;;5093327;28;20035;-75
2022/04/29 07:41:44;;;;;;;8.45;5.75;;;;;;;;;;5096426;28;20570;-75
2022/04/29 07:42:36;;;;;;;10.23;5.97;;;;;;;;;;5108361;28;20498;-75
2022/04/29 07:45:02;;;;;;;10.40;5.78;;;;;;;;;;5088874;28;20042;-75
2022/04/29 07:47:29;;;;;;;10.93;5.47;;;;;;;;;;5084649;28;20036;-74
2022/04/29 07:49:55;;;;;;;8.50;5.57;;;;;;;;;;5088714;28;20470;-74
2022/04/29 07:52:21;;;;;;;10.18;6.00;;;;;;;;;;5087860;28;20524;-75
2022/04/29 07:54:48;;;;;;;9.40;4.95;;;;;;;;;;5073007;28;20047;-74
2022/04/29 07:57:14;;;;;;;9.38;5.03;;;;;;;;;;5106137;28;20483;-74
2022/04/29 07:59:40;;;;;;;8.27;4.00;;;;;;;;;;5089941;28;20071;-75
2022/04/29 08:02:06;;;;;;;10.60;4.68;;;;;;;;;;5089953;28;20542;-74
2022/04/29 08:04:33;;;;;;;6.40;4.30;;;;;;;;;;5080285;28;20552;-75
2022/04/29 08:07:02;;;;;;;7.97;4.40;;;;;;;;;;5088193;28;20319;-75
2022/04/29 08:09:28;;;;;;;9.05;4.28;;;;;;;;;;5123730;28;20130;-75
2022/04/29 08:11:55;;;;;;;6.97;4.10;;;;;;;;;;5089646;28;20039;-75
2022/04/29 08:14:22;;;;;;;7.65;3.85;;;;;;;;;;5090120;28;20047;-75
2022/04/29 08:16:49;;;;;;;7.30;3.83;;;;;;;;;;5090868;28;20522;-75
2022/04/29 08:19:15;;;;;;;8.70;4.43;;;;;;;;;;5073313;28;20479;-75
2022/04/29 08:21:42;;;;;;;9.60;3.78;;;;;;;;;;5090107;28;20054;-74
2022/04/29 08:24:08;;;;;;;8.15;4.20;;;;;;;;;;5110097;28;20062;-74
2022/04/29 08:26:34;;;;;;;7.15;4.28;;;;;;;;;;5112374;28;20043;-75
2022/04/29 08:29:00;;;;;;;9.40;3.85;;;;;;;;;;5094293;28;20402;-74
2022/04/29 08:31:27;;;;;;;8.95;3.90;;;;;;;;;;5093956;28;20126;-75
2022/04/29 08:34:19;;;;;;;8.25;4.45;;;;;;;;;;5090563;28;20044;-75
2022/04/29 08:36:46;;;;;;;9.45;4.40;;;;;;;;;;5070555;28;20040;-75
2022/04/29 08:39:12;;;;;;;7.20;4.18;;;;;;;;;;5090067;28;20060;-75
2022/04/29 08:41:38;;;;;;;10.45;4.38;;;;;;;;;;5090632;28;20070;-75
2022/04/29 08:44:08;;;;;;;10.82;4.30;;;;;;;;;;5090340;28;20043;-75
2022/04/29 08:46:34;;;;;;;7.35;4.35;;;;;;;;;;5090191;28;20036;-75
2022/04/29 08:49:02;;;;;;;7.53;4.25;;;;;;;;;;5090117;28;20072;-75
2022/04/29 08:51:29;;;;;;;8.60;4.07;;;;;;;;;;5090620;28;20044;-75
2022/04/29 08:53:57;;;;;;;9.63;4.20;;;;;;;;;;5090352;28;20048;-75
2022/04/29 08:59:12;;;;;;;6.10;3.58;;;;;;;;;;5074032;28;20466;-75
2022/04/29 09:01:38;;;;;;;9.70;4.50;;;;;;;;;;5073069;28;20032;-75
2022/04/29 09:04:04;;;;;;;6.63;3.40;;;;;;;;;;5090238;28;20035;-74
2022/04/29 09:06:30;;;;;;;8.00;3.78;;;;;;;;;;5090285;28;20075;-75
2022/04/29 09:09:07;;;;;;;6.32;3.42;;;;;;;;;;5089777;28;20126;-75
2022/04/29 09:11:34;;;;;;;6.43;3.38;;;;;;;;;;5090225;28;20449;-75
2022/04/29 09:14:18;;;;;;;8.63;3.53;;;;;;;;;;5089646;28;20039;-75
2022/04/29 09:16:49;;;;;;;9.88;3.92;;;;;;;;;;5073180;28;20495;-75
2022/04/29 09:19:31;;;;;;;6.90;3.40;;;;;;;;;;5089539;28;20039;-75
2022/04/29 09:22:08;;;;;;;7.68;3.15;;;;;;;;;;5089883;28;20407;-75
2022/04/29 09:24:35;;;;;;;6.90;3.95;;;;;;;;;;5089707;28;20046;-75
2022/04/29 09:27:02;;;;;;;9.35;3.67;;;;;;;;;;5089759;28;20543;-75
2022/04/29 09:29:31;;;;;;;7.97;3.88;;;;;;;;;;5089322;28;20054;-75
2022/04/29 09:32:01;;;;;;;7.78;3.58;;;;;;;;;;5089390;28;20044;-75
2022/04/29 09:34:46;;;;;;;6.70;3.13;;;;;;;;;;5089206;28;20064;-75
2022/04/29 09:37:16;;;;;;;7.28;3.42;;;;;;;;;;5072208;28;20047;-75
2022/04/29 09:39:56;;;;;;;7.47;3.63;;;;;;;;;;5089122;28;20074;-75
2022/04/29 09:42:23;;;;;;;5.95;3.10;;;;;;;;;;5073157;28;20119;-75
2022/04/29 09:44:50;;;;;;;9.05;3.50;;;;;;;;;;5089389;28;20044;-75
2022/04/29 09:47:19;;;;;;;12.30;4.50;;;;;;;;;;5089621;28;20637;-76
2022/04/29 09:49:59;;;;;;;7.50;4.43;;;;;;;;;;5089099;28;20047;-75
2022/04/29 09:52:25;;;;;;;6.30;3.78;;;;;;;;;;5089116;28;20044;-75
2022/04/29 09:54:52;;;;;;;10.93;4.75;;;;;;;;;;5089107;28;20040;-76
2022/04/29 09:57:19;;;;;;;9.88;4.53;;;;;;;;;;5088860;28;20097;-75
2022/04/29 09:59:49;;;;;;;11.40;4.63;;;;;;;;;;5088803;28;20036;-75
2022/04/29 10:02:16;;;;;;;7.95;4.22;;;;;;;;;;5088986;28;20127;-75
2022/04/29 10:04:44;;;;;;;9.05;4.55;;;;;;;;;;5088622;28;20393;-75
2022/04/29 10:07:13;;;;;;;9.50;4.90;;;;;;;;;;5088660;28;20048;-75
2022/04/29 10:09:40;;;;;;;6.60;4.03;;;;;;;;;;5088848;28;20130;-75
2022/04/29 10:12:17;;;;;;;8.65;4.07;;;;;;;;;;5088794;28;20447;-76
2022/04/29 10:14:47;;;;;;;8.13;4.65;;;;;;;;;;5088477;28;20181;-75
2022/04/29 10:22:45;;;;;;;10.98;5.50;;;;;;;;;;5088215;28;20047;-75
2022/04/29 10:25:12;;;;;;;10.25;5.28;;;;;;;;;;5088297;28;20040;-76
2022/04/29 10:27:39;;;;;;;7.72;5.20;;;;;;;;;;5088285;28;20084;-75
2022/04/29 10:30:06;;;;;;;7.72;4.97;;;;;;;;;;5088470;28;20036;-75
2022/04/29 10:32:52;;;;;;;11.25;5.30;;;;;;;;;;5088410;28;20046;-75
2022/04/29 10:35:37;;;;;;;9.68;5.18;;;;;;;;;;5088233;28;20056;-75
2022/04/29 10:38:13;;;;;;;8.35;5.60;;;;;;;;;;5087978;28;20055;-74
2022/04/29 10:40:40;;;;;;;8.68;5.13;;;;;;;;;;5088017;28;20087;-75
2022/04/29 10:43:11;;;;;;;11.07;6.05;;;;;;;;;;5087972;28;20046;-75
2022/04/29 10:45:57;;;;;;;10.18;6.30;;;;;;;;;;5088335;28;20047;-75
2022/04/29 10:48:34;;;;;;;7.25;5.50;;;;;;;;;;5087103;28;20048;-75
2022/04/29 10:51:10;;;;;;;9.75;5.65;;;;;;;;;;5088114;28;20225;-75
2022/04/29 10:53:37;;;;;;;9.00;5.85;;;;;;;;;;5087999;28;20511;-75
2022/04/29 10:56:22;;;;;;;9.95;5.50;;;;;;;;;;5089092;28;20105;-76
2022/04/29 10:58:48;;;;;;;11.45;5.40;;;;;;;;;;5088050;28;20040;-75
2022/04/29 11:01:14;;;;;;;10.07;5.82;;;;;;;;;;5088082;28;20044;-76
2022/04/29 11:03:47;;;;;;;9.05;6.00;;;;;;;;;;5087775;28;20040;-75
2022/04/29 11:06:13;;;;;;;9.02;6.22;;;;;;;;;;5087760;28;20048;-76
2022/04/29 11:08:40;;;;;;;10.85;6.28;;;;;;;;;;5087539;28;20042;-75
2022/04/29 11:11:06;;;;;;;11.05;7.05;;;;;;;;;;5087520;28;20075;-76
2022/04/29 11:13:37;;;;;;;8.75;5.95;;;;;;;;;;5087677;28;20048;-75
2022/04/29 11:16:24;;;;;;;11.35;6.45;;;;;;;;;;5087425;28;20114;-75
2022/04/29 11:19:10;;;;;;;10.88;7.07;;;;;;;;;;5072088;28;20043;-75
2022/04/29 11:27:06;;;;;;;12.65;6.57;;;;;;;;;;5087216;28;20123;-75
2022/04/29 11:29:41;;;;;;;11.52;6.68;;;;;;;;;;5087820;28;20075;-75
2022/04/29 11:32:08;;;;;;;13.98;6.45;;;;;;;;;;5087724;28;20441;-75
2022/04/29 11:34:34;;;;;;;8.60;5.75;;;;;;;;;;5086814;28;20067;-75
2022/04/29 11:37:00;;;;;;;8.65;6.47;;;;;;;;;;5087159;28;20043;-75
2022/04/29 11:39:26;;;;;;;9.35;5.65;;;;;;;;;;5087048;28;20086;-76
2022/04/29 11:41:57;;;;;;;10.80;5.63;;;;;;;;;;5087041;28;20044;-75
2022/04/29 11:44:34;;;;;;;9.05;5.80;;;;;;;;;;5087742;28;20051;-75
2022/04/29 11:47:06;;;;;;;10.35;5.88;;;;;;;;;;5087445;28;20044;-75
2022/04/29 11:49:34;;;;;;;9.70;6.03;;;;;;;;;;5087433;28;20051;-75
2022/04/29 11:52:19;;;;;;;7.90;5.28;;;;;;;;;;5086871;28;20047;-75
2022/04/29 11:54:45;;;;;;;;;;;;;;;;;;5087908;28;20567;-75
2022/04/29 11:57:14;;;;;;;9.82;5.40;;;;;;;;;;5087218;28;19970;-75
2022/04/29 11:59:41;;;;;;;8.50;5.50;;;;;;;;;;5089955;28;20110;-75
2022/04/29 12:02:09;;;;;;;11.13;5.53;;;;;;;;;;5091146;28;20051;-75
2022/04/29 12:04:35;;;;;;;6.93;5.03;;;;;;;;;;5091322;28;20063;-75
2022/04/29 12:07:05;;;;;;;9.65;5.43;;;;;;;;;;5074447;28;20047;-76
2022/04/29 12:09:34;;;;;;;8.75;5.18;;;;;;;;;;5090962;28;20052;-75
2022/04/29 12:12:01;;;;;;;8.63;5.20;;;;;;;;;;5091166;28;20511;-75
2022/04/29 12:14:28;;;;;;;10.15;6.07;;;;;;;;;;5091396;28;20126;-76
2022/04/29 12:16:54;;;;;;;10.52;5.57;;;;;;;;;;5090967;28;20047;-75
2022/04/29 12:19:24;;;;;;;8.00;4.85;;;;;;;;;;5090728;28;20044;-75
2022/04/29 12:21:54;;;;;;;8.52;4.72;;;;;;;;;;5074329;28;20039;-75
2022/04/29 12:24:20;;;;;;;9.20;5.18;;;;;;;;;;5090819;28;20051;-75
2022/04/29 12:27:08;;;;;;;7.10;4.75;;;;;;;;;;5082835;28;20036;-75
2022/04/29 12:29:35;;;;;;;10.23;5.18;;;;;;;;;;5096775;28;20391;-76
2022/04/29 12:35:10;;;;;;;7.55;5.18;;;;;;;;;;5095091;28;20155;-75
2022/04/29 12:37:37;;;;;;;10.07;5.10;;;;;;;;;;5093342;28;20071;-75
2022/04/29 12:40:04;;;;;;;9.73;5.20;;;;;;;;;;5089800;28;20036;-75
2022/04/29 12:42:31;;;;;;;9.77;5.53;;;;;;;;;;5088884;28;20119;-76
2022/04/29 12:45:04;;;;;;;9.75;5.72;;;;;;;;;;5073251;28;20060;-75
2022/04/29 12:47:34;;;;;;;8.93;4.75;;;;;;;;;;5087692;28;20398;-75
2022/04/29 12:50:19;;;;;;;9.00;4.40;;;;;;;;;;5082019;28;20101;-74
2022/04/29 12:52:49;;;;;;;11.18;4.50;;;;;;;;;;5085240;28;20044;-75
2022/04/29 12:55:16;;;;;;;12.23;4.57;;;;;;;;;;5092756;28;20044;-75
2022/04/29 12:57:48;;;;;;;7.93;4.20;;;;;;;;;;5090351;28;20499;-75
2022/04/29 13:00:27;;;;;;;8.23;4.50;;;;;;;;;;5090077;28;20047;-75
2022/04/29 13:03:00;;;;;;;6.90;4.40;;;;;;;;;;5090370;28;20083;-75
2022/04/29 13:05:26;;;;;;;8.18;4.57;;;;;;;;;;5089950;28;20044;-75
2022/04/29 13:07:52;;;;;;;8.25;4.47;;;;;;;;;;5090591;28;20036;-76
2022/04/29 13:10:18;;;;;;;8.43;4.57;;;;;;;;;;5089308;28;20044;-76
2022/04/29 13:12:45;;;;;;;7.38;4.50;;;;;;;;;;5090006;28;20411;-76
2022/04/29 13:15:12;;;;;;;7.97;4.38;;;;;;;;;;5089770;28;20040;-75
2022/04/29 13:17:38;;;;;;;8.68;4.55;;;;;;;;;;5089836;28;20381;-76
2022/04/29 13:20:08;;;;;;;6.20;3.88;;;;;;;;;;5089589;28;20036;-76
2022/04/29 13:22:38;;;;;;;7.63;4.10;;;;;;;;;;5089739;28;20039;-76
2022/04/29 13:25:08;;;;;;;6.88;3.65;;;;;;;;;;5089855;28;20110;-76
2022/04/29 13:27:34;;;;;;;8.32;3.97;;;;;;;;;;5089778;28;20032;-76
2022/04/29 13:30:07;;;;;;;10.52;4.20;;;;;;;;;;5072911;28;20031;-76
2022/04/29 13:32:34;;;;;;;7.53;3.65;;;;;;;;;;5074177;28;20048;-75
2022/04/29 13:35:00;;;;;;;6.75;3.50;;;;;;;;;;5089321;28;20403;-76
2022/04/29 13:37:27;;;;;;;8.68;3.65;;;;;;;;;;5089530;28;20036;-76
2022/04/29 13:39:54;;;;;;;6.57;3.90;;;;;;;;;;5089237;28;20036;-76
2022/04/29 13:42:20;;;;;;;6.80;3.83;;;;;;;;;;5089655;28;20115;-76
2022/04/29 13:44:46;;;;;;;8.27;3.75;;;;;;;;;;5089426;28;20032;-77
2022/04/29 13:47:15;;;;;;;9.43;4.60;;;;;;;;;;5089518;28;20456;-76
2022/04/29 13:49:41;;;;;;;8.45;4.03;;;;;;;;;;5089335;28;20044;-76
2022/04/29 13:54:53;;;;;;;;;;;;;;;;;;5089815;28;20044;-76
2022/04/29 13:57:19;;;;;;;8.98;4.32;;;;;;;;;;5123232;27;19928;-76
2022/04/29 13:59:45;;;;;;;6.40;3.65;;;;;;;;;;5089101;28;20106;-76
2022/04/29 14:02:11;;;;;;;12.25;4.57;;;;;;;;;;5087424;28;20162;-76
2022/04/29 14:04:38;;;;;;;8.32;3.78;;;;;;;;;;5062323;28;20044;-75
2022/04/29 14:07:04;;;;;;;8.85;3.90;;;;;;;;;;5088767;28;20048;-76
2022/04/29 14:09:30;;;;;;;8.73;4.28;;;;;;;;;;5088904;28;20043;-75
2022/04/29 14:11:56;;;;;;;9.25;3.80;;;;;;;;;;5088735;28;20047;-75
2022/04/29 14:14:23;;;;;;;7.35;3.80;;;;;;;;;;5071817;28;20075;-76
2022/04/29 14:16:51;;;;;;;7.30;3.58;;;;;;;;;;5088430;28;20044;-77
2022/04/29 14:19:18;;;;;;;6.93;4.07;;;;;;;;;;5089118;28;20498;-77
2022/04/29 14:21:46;;;;;;;6.03;3.88;;;;;;;;;;5088462;28;20076;-77
2022/04/29 14:24:12;;;;;;;8.18;3.80;;;;;;;;;;5089142;28;20403;-77
2022/04/29 14:26:38;;;;;;;10.32;4.30;;;;;;;;;;5088424;28;20124;-75
2022/04/29 14:29:05;;;;;;;7.47;3.47;;;;;;;;;;5088518;28;20127;-76
2022/04/29 14:31:31;;;;;;;7.63;3.85;;;;;;;;;;5080821;28;20040;-76
2022/04/29 14:34:01;;;;;;;7.82;3.85;;;;;;;;;;5087714;28;20055;-76
2022/04/29 14:36:31;;;;;;;7.45;3.67;;;;;;;;;;5087828;28;20044;-76
2022/04/29 14:38:57;;;;;;;6.53;3.30;;;;;;;;;;5087611;28;20040;-76
2022/04/29 14:41:23;;;;;;;8.23;4.05;;;;;;;;;;5088109;28;20047;-76
2022/04/29 14:43:49;;;;;;;8.00;3.50;;;;;;;;;;5087808;28;20495;-76
2022/04/29 14:46:17;;;;;;;7.43;4.10;;;;;;;;;;5085960;28;20040;-76
2022/04/29 14:48:44;;;;;;;6.70;4.15;;;;;;;;;;5088799;28;20052;-76
2022/04/29 14:51:10;;;;;;;6.13;3.97;;;;;;;;;;5087858;28;20484;-75
2022/04/29 14:53:37;;;;;;;9.05;4.78;;;;;;;;;;5087639;28;20054;-76
2022/04/29 14:56:13;;;;;;;8.32;4.90;;;;;;;;;;5087740;28;20388;-74
2022/04/29 14:58:39;;;;;;;9.05;5.47;;;;;;;;;;5087414;28;20044;-75
2022/04/29 15:01:05;;;;;;;8.98;5.43;;;;;;;;;;5086551;28;20028;-76
2022/04/29 15:03:31;;;;;;;9.52;5.60;;;;;;;;;;5085358;28;20040;-76
2022/04/29 15:06:19;;;;;;;10.35;5.68;;;;;;;;;;5087846;28;20036;-76
2022/04/29 15:08:46;;;;;;;9.82;6.03;;;;;;;;;;5087194;28;20119;-75
2022/04/29 15:16:44;;;;;;;12.75;6.63;;;;;;;;;;5082245;28;20545;-75
2022/04/29 15:19:10;;;;;;;11.18;6.57;;;;;;;;;;5085828;28;20040;-76